Nearby METAR Reports

KLNK - Lincoln, Nebraska, USA
Distance from station: WNW 8mi, 13km
Updated: Tue, 01-Dec-2020 12:54am CST
Clear
Clear
 Wind from calm
Wind: Calm
Temperature: 27°F , -3°C
Dew Point: 12°F , -11°C
Humidity: 54%
Barometer: 30.05 inHg , 1017.6 hPa
Clouds: Clear
Visibility: 10 miles , 16 km
2020/12/01 06:54 KLNK 010654Z AUTO 00000KT 10SM CLR M03/M11 A3005 RMK AO2 SLP187 T10331111
KAHQ - Wahoo, Nebraska, USA
Distance from station: N 31mi, 49km
Updated: Tue, 01-Dec-2020 1:35am CST
Clear
Clear
 Wind from S
Wind: S 7 mph , 11 km/h
Temperature: 21°F , -6°C
Wind Chill: 12°F , -11°C
Dew Point: 14°F , -10°C
Humidity: 74%
Barometer: 30.03 inHg , 1016.9 hPa
Clouds: Clear
Visibility: 10 miles , 16 km
2020/12/01 07:35 KAHQ 010735Z AUTO 17006KT 10SM CLR M06/M10 A3003 RMK AO2 T10611103
 
KBIE - Beatrice Municip, Nebraska, USA
Distance from station: S 36mi, 57km
Updated: Tue, 01-Dec-2020 1:35am CST
Clear
Clear
 Wind from ESE
Wind: ESE 7 mph , 11 km/h
Temperature: 27°F , -3°C
Wind Chill: 19°F , -7°C
Dew Point: 16°F , -9°C
Humidity: 64%
Barometer: 30.02 inHg , 1016.6 hPa
Clouds: Clear
Visibility: 10 miles , 16 km
2020/12/01 07:35 KBIE 010735Z AUTO 12006KT 10SM CLR M03/M09 A3002 RMK AO2 T10261093
KMLE - Omaha/Millard, Nebraska, USA
Distance from station: NE 39mi, 63km
Updated: Tue, 01-Dec-2020 1:35am CST
Clear
Clear
 Wind from SE
Wind: SE 3 mph , 6 km/h
Temperature: 23°F , -5°C
Dew Point: 16°F , -9°C
Humidity: 74%
Barometer: 30.05 inHg , 1017.6 hPa
Clouds: Clear
Visibility: 10 miles , 16 km
2020/12/01 07:35 KMLE 010735Z AUTO 13003KT 10SM CLR M05/M09 A3005 RMK AO2 T10461093
 
KPMV - Plattsmouth Muni, Nebraska, USA
Distance from station: ENE 39mi, 63km
Updated: Tue, 01-Dec-2020 1:35am CST
Clear
Clear
 Wind from SE
Wind: SE 8 mph , 13 km/h
Temperature: 23°F , -5°C
Wind Chill: 14°F , -10°C
Dew Point: 16°F , -9°C
Humidity: 74%
Barometer: 30.05 inHg , 1017.6 hPa
Clouds: Clear
Visibility: 10 miles , 16 km
2020/12/01 07:35 KPMV 010735Z AUTO 14007KT 10SM CLR M05/M09 A3005 RMK AO2 T10481091
KAFK - Nebraska City, Nebraska, USA
Distance from station: ESE 43mi, 69km
Updated: Tue, 01-Dec-2020 1:35am CST
Clear
Clear
 Wind from S
Wind: S 6 mph , 9 km/h
Temperature: 21°F , -6°C
Wind Chill: 13°F , -11°C
Dew Point: 14°F , -10°C
Humidity: 74%
Barometer: 30.05 inHg , 1017.6 hPa
Clouds: Clear
Visibility: 10 miles , 16 km
2020/12/01 07:35 KAFK 010735Z AUTO 17005KT 10SM CLR M06/M10 A3005 RMK AO2 T10621098
 
KOFF - Offutt Afb/Belle, Nebraska, USA
Distance from station: ENE 44mi, 70km
Updated: Tue, 01-Dec-2020 12:56am CST
Clear
Clear
 Wind from SSE
Wind: SSE 3 mph , 6 km/h
Temperature: 18°F , -8°C
Dew Point: 10°F , -12°C
Humidity: 73%
Barometer: 30.06 inHg , 1017.9 hPa
Clouds: Clear
Visibility: 10 miles , 16 km
2020/12/01 06:56 KOFF 010656Z AUTO 16003KT 10SM CLR M08/M12 A3006 RMK AO2 SLP198 T10761116 $
KFET - Fremont Muni Arp, Nebraska, USA
Distance from station: N 46mi, 74km
Updated: Tue, 01-Dec-2020 1:35am CST
Clear
Clear
 Wind from SSE
Wind: SSE 7 mph , 11 km/h
Temperature: 32°F , 0°C
Wind Chill: 25°F , -4°C
Dew Point: 14°F , -10°C
Humidity: 47%
Barometer: 30.02 inHg , 1016.6 hPa
Clouds: Clear
Visibility: 10 miles , 16 km
2020/12/01 07:35 KFET 010735Z AUTO 15006KT 10SM CLR 00/M10 A3002 RMK AO2 T00001098
 
KBTA - Blair Muni, Nebraska, USA
Distance from station: NNE 51mi, 82km
Updated: Tue, 01-Dec-2020 1:35am CST
Clear
Clear
 Wind from SSE
Wind: SSE 6 mph , 9 km/h
Temperature: 25°F , -4°C
Wind Chill: 18°F , -8°C
Dew Point: 14°F , -10°C
Humidity: 63%
Barometer: 30.02 inHg , 1016.6 hPa
Clouds: Clear
Visibility: 10 miles , 16 km
2020/12/01 07:35 KBTA 010735Z AUTO 15005KT 10SM CLR M04/M10 A3002 RMK AO2 T10361096
KJYR - York, Nebraska, USA
Distance from station: W 52mi, 84km
Updated: Tue, 01-Dec-2020 1:35am CST
Clear
Clear
 Wind from SSE
Wind: SSE 8 mph , 13 km/h
Temperature: 27°F , -3°C
Wind Chill: 19°F , -7°C
Dew Point: 16°F , -9°C
Humidity: 64%
Barometer: 29.97 inHg , 1014.9 hPa
Clouds: Clear
Visibility: 10 miles , 16 km
2020/12/01 07:35 KJYR 010735Z AUTO 16007KT 10SM CLR M03/M09 A2997 RMK AO2
 
KOMA - Omaha/Eppley, Nebraska, USA
Distance from station: NE 53mi, 85km
Updated: Tue, 01-Dec-2020 12:52am CST
Clear
Clear
 Wind from S
Wind: S 8 mph , 13 km/h
Temperature: 25°F , -4°C
Wind Chill: 16°F , -9°C
Dew Point: 16°F , -9°C
Humidity: 69%
Barometer: 30.07 inHg , 1018.3 hPa
Clouds: Clear
Visibility: 10 miles , 16 km
2020/12/01 06:52 KOMA 010652Z 17007KT 10SM CLR M04/M09 A3007 RMK AO2 SLP192 T10391094
KOLU - Columbus Muni, Nebraska, USA
Distance from station: NW 58mi, 93km
Updated: Tue, 01-Dec-2020 12:56am CST
Clear
Clear
 Wind from E
Wind: E 5 mph , 7 km/h
Temperature: 23°F , -5°C
Wind Chill: 17°F , -8°C
Dew Point: 16°F , -9°C
Humidity: 74%
Barometer: 30.01 inHg , 1016.3 hPa
Clouds: Clear
Visibility: 10 miles , 16 km
2020/12/01 06:56 KOLU 010656Z AUTO 09004KT 10SM CLR M05/M09 A3001 RMK AO2 SLP181 T10501094 FZRANO